sensor_id;sensor_type;location;lat;lon;timestamp;P1;durP1;ratioP1;P2;durP2;ratioP2
23280;SDS011;11809;56.390;-3.266;2023-01-19T00:01:24;0.70;;;0.55;;
23280;SDS011;11809;56.390;-3.266;2023-01-19T00:03:52;0.70;;;0.60;;
23280;SDS011;11809;56.390;-3.266;2023-01-19T00:06:19;0.40;;;0.40;;
23280;SDS011;11809;56.390;-3.266;2023-01-19T00:08:47;1.13;;;0.60;;
23280;SDS011;11809;56.390;-3.266;2023-01-19T00:11:15;0.63;;;0.50;;
23280;SDS011;11809;56.390;-3.266;2023-01-19T00:13:43;0.40;;;0.40;;
23280;SDS011;11809;56.390;-3.266;2023-01-19T00:16:16;0.90;;;0.40;;
23280;SDS011;11809;56.390;-3.266;2023-01-19T00:18:44;1.13;;;0.50;;
23280;SDS011;11809;56.390;-3.266;2023-01-19T00:21:12;0.38;;;0.30;;
23280;SDS011;11809;56.390;-3.266;2023-01-19T00:23:43;0.75;;;0.47;;
23280;SDS011;11809;56.390;-3.266;2023-01-19T00:26:13;1.10;;;0.50;;
23280;SDS011;11809;56.390;-3.266;2023-01-19T00:28:42;0.88;;;0.50;;
23280;SDS011;11809;56.390;-3.266;2023-01-19T00:31:10;0.60;;;0.47;;
23280;SDS011;11809;56.390;-3.266;2023-01-19T00:33:37;0.75;;;0.38;;
23280;SDS011;11809;56.390;-3.266;2023-01-19T00:36:05;0.60;;;0.50;;
23280;SDS011;11809;56.390;-3.266;2023-01-19T00:38:32;0.63;;;0.50;;
23280;SDS011;11809;56.390;-3.266;2023-01-19T00:40:59;1.50;;;0.40;;
23280;SDS011;11809;56.390;-3.266;2023-01-19T00:43:26;0.77;;;0.30;;
23280;SDS011;11809;56.390;-3.266;2023-01-19T00:45:53;0.88;;;0.40;;
23280;SDS011;11809;56.390;-3.266;2023-01-19T00:48:20;0.98;;;0.30;;
23280;SDS011;11809;56.390;-3.266;2023-01-19T00:50:47;0.80;;;0.50;;
23280;SDS011;11809;56.390;-3.266;2023-01-19T00:53:14;4.47;;;0.40;;
23280;SDS011;11809;56.390;-3.266;2023-01-19T00:55:41;0.47;;;0.30;;
23280;SDS011;11809;56.390;-3.266;2023-01-19T00:58:08;0.20;;;0.20;;
23280;SDS011;11809;56.390;-3.266;2023-01-19T01:00:35;0.88;;;0.52;;
23280;SDS011;11809;56.390;-3.266;2023-01-19T01:03:02;0.73;;;0.30;;
23280;SDS011;11809;56.390;-3.266;2023-01-19T01:05:30;0.30;;;0.30;;
23280;SDS011;11809;56.390;-3.266;2023-01-19T01:07:57;0.80;;;0.35;;
23280;SDS011;11809;56.390;-3.266;2023-01-19T01:10:25;0.88;;;0.30;;
23280;SDS011;11809;56.390;-3.266;2023-01-19T01:12:54;1.52;;;0.47;;
23280;SDS011;11809;56.390;-3.266;2023-01-19T01:15:42;0.30;;;0.20;;
23280;SDS011;11809;56.390;-3.266;2023-01-19T01:18:09;0.75;;;0.30;;
23280;SDS011;11809;56.390;-3.266;2023-01-19T01:20:36;1.33;;;0.20;;
23280;SDS011;11809;56.390;-3.266;2023-01-19T01:23:03;0.40;;;0.40;;
23280;SDS011;11809;56.390;-3.266;2023-01-19T01:25:30;1.20;;;0.30;;
23280;SDS011;11809;56.390;-3.266;2023-01-19T01:27:59;0.65;;;0.30;;
23280;SDS011;11809;56.390;-3.266;2023-01-19T01:30:26;0.93;;;0.38;;
23280;SDS011;11809;56.390;-3.266;2023-01-19T01:32:53;1.80;;;0.40;;
23280;SDS011;11809;56.390;-3.266;2023-01-19T01:35:20;0.70;;;0.30;;
23280;SDS011;11809;56.390;-3.266;2023-01-19T01:37:47;1.02;;;0.30;;
23280;SDS011;11809;56.390;-3.266;2023-01-19T01:40:15;0.38;;;0.25;;
23280;SDS011;11809;56.390;-3.266;2023-01-19T01:42:43;0.20;;;0.20;;
23280;SDS011;11809;56.390;-3.266;2023-01-19T01:45:24;0.75;;;0.20;;
23280;SDS011;11809;56.390;-3.266;2023-01-19T01:50:37;0.40;;;0.30;;
23280;SDS011;11809;56.390;-3.266;2023-01-19T01:53:27;0.52;;;0.30;;
23280;SDS011;11809;56.390;-3.266;2023-01-19T01:55:56;0.45;;;0.20;;
23280;SDS011;11809;56.390;-3.266;2023-01-19T01:58:23;0.40;;;0.30;;
23280;SDS011;11809;56.390;-3.266;2023-01-19T02:00:51;0.55;;;0.30;;
23280;SDS011;11809;56.390;-3.266;2023-01-19T02:03:36;0.30;;;0.30;;
23280;SDS011;11809;56.390;-3.266;2023-01-19T02:06:04;0.22;;;0.20;;
23280;SDS011;11809;56.390;-3.266;2023-01-19T02:08:37;0.50;;;0.20;;
23280;SDS011;11809;56.390;-3.266;2023-01-19T02:11:27;0.73;;;0.32;;
23280;SDS011;11809;56.390;-3.266;2023-01-19T02:14:14;0.55;;;0.30;;
23280;SDS011;11809;56.390;-3.266;2023-01-19T02:16:41;0.55;;;0.25;;
23280;SDS011;11809;56.390;-3.266;2023-01-19T02:19:09;0.52;;;0.20;;
23280;SDS011;11809;56.390;-3.266;2023-01-19T02:24:25;0.40;;;0.30;;
23280;SDS011;11809;56.390;-3.266;2023-01-19T02:26:52;0.20;;;0.20;;
23280;SDS011;11809;56.390;-3.266;2023-01-19T02:29:21;0.30;;;0.10;;
23280;SDS011;11809;56.390;-3.266;2023-01-19T02:31:50;0.15;;;0.15;;
23280;SDS011;11809;56.390;-3.266;2023-01-19T02:34:18;0.50;;;0.30;;
23280;SDS011;11809;56.390;-3.266;2023-01-19T02:37:32;0.40;;;0.32;;
23280;SDS011;11809;56.390;-3.266;2023-01-19T02:39:41;1.00;;;0.30;;
23280;SDS011;11809;56.390;-3.266;2023-01-19T02:42:14;0.30;;;0.20;;
23280;SDS011;11809;56.390;-3.266;2023-01-19T02:44:46;0.35;;;0.20;;
23280;SDS011;11809;56.390;-3.266;2023-01-19T02:47:15;1.10;;;0.30;;
23280;SDS011;11809;56.390;-3.266;2023-01-19T02:49:42;0.80;;;0.30;;
23280;SDS011;11809;56.390;-3.266;2023-01-19T02:52:16;0.85;;;0.20;;
23280;SDS011;11809;56.390;-3.266;2023-01-19T02:57:45;0.40;;;0.20;;
23280;SDS011;11809;56.390;-3.266;2023-01-19T03:06:16;0.28;;;0.20;;
23280;SDS011;11809;56.390;-3.266;2023-01-19T03:09:03;0.30;;;0.20;;
23280;SDS011;11809;56.390;-3.266;2023-01-19T03:11:40;1.00;;;0.20;;
23280;SDS011;11809;56.390;-3.266;2023-01-19T03:14:13;0.98;;;0.20;;
23280;SDS011;11809;56.390;-3.266;2023-01-19T03:16:58;0.10;;;0.10;;
23280;SDS011;11809;56.390;-3.266;2023-01-19T03:19:32;0.35;;;0.15;;
23280;SDS011;11809;56.390;-3.266;2023-01-19T03:22:04;0.40;;;0.20;;
23280;SDS011;11809;56.390;-3.266;2023-01-19T03:24:36;1.80;;;0.28;;
23280;SDS011;11809;56.390;-3.266;2023-01-19T03:27:25;0.30;;;0.25;;
23280;SDS011;11809;56.390;-3.266;2023-01-19T03:30:15;0.98;;;0.30;;
23280;SDS011;11809;56.390;-3.266;2023-01-19T03:35:21;0.30;;;0.17;;
23280;SDS011;11809;56.390;-3.266;2023-01-19T03:37:51;0.30;;;0.17;;
23280;SDS011;11809;56.390;-3.266;2023-01-19T03:40:21;0.30;;;0.30;;
23280;SDS011;11809;56.390;-3.266;2023-01-19T03:42:50;0.63;;;0.22;;
23280;SDS011;11809;56.390;-3.266;2023-01-19T03:45:17;0.20;;;0.10;;
23280;SDS011;11809;56.390;-3.266;2023-01-19T03:47:45;0.40;;;0.30;;
23280;SDS011;11809;56.390;-3.266;2023-01-19T03:50:13;0.20;;;0.20;;
23280;SDS011;11809;56.390;-3.266;2023-01-19T03:53:06;0.30;;;0.20;;
23280;SDS011;11809;56.390;-3.266;2023-01-19T03:55:34;0.40;;;0.10;;
23280;SDS011;11809;56.390;-3.266;2023-01-19T03:58:02;0.25;;;0.10;;
23280;SDS011;11809;56.390;-3.266;2023-01-19T04:00:29;0.20;;;0.20;;
23280;SDS011;11809;56.390;-3.266;2023-01-19T04:02:56;0.20;;;0.20;;
23280;SDS011;11809;56.390;-3.266;2023-01-19T04:05:24;0.22;;;0.20;;
23280;SDS011;11809;56.390;-3.266;2023-01-19T04:07:51;0.50;;;0.20;;
23280;SDS011;11809;56.390;-3.266;2023-01-19T04:10:18;0.80;;;0.20;;
23280;SDS011;11809;56.390;-3.266;2023-01-19T04:12:46;0.20;;;0.20;;
23280;SDS011;11809;56.390;-3.266;2023-01-19T04:15:13;0.40;;;0.20;;
23280;SDS011;11809;56.390;-3.266;2023-01-19T04:17:41;0.40;;;0.20;;
23280;SDS011;11809;56.390;-3.266;2023-01-19T04:20:08;0.30;;;0.25;;
23280;SDS011;11809;56.390;-3.266;2023-01-19T04:22:35;0.68;;;0.20;;
23280;SDS011;11809;56.390;-3.266;2023-01-19T04:25:04;0.32;;;0.20;;
23280;SDS011;11809;56.390;-3.266;2023-01-19T04:27:32;0.30;;;0.17;;
23280;SDS011;11809;56.390;-3.266;2023-01-19T04:30:00;0.35;;;0.30;;
23280;SDS011;11809;56.390;-3.266;2023-01-19T04:32:27;0.15;;;0.10;;
23280;SDS011;11809;56.390;-3.266;2023-01-19T04:34:53;0.57;;;0.17;;
23280;SDS011;11809;56.390;-3.266;2023-01-19T04:37:20;0.22;;;0.10;;
23280;SDS011;11809;56.390;-3.266;2023-01-19T04:39:47;0.30;;;0.17;;
23280;SDS011;11809;56.390;-3.266;2023-01-19T04:42:14;0.73;;;0.20;;
23280;SDS011;11809;56.390;-3.266;2023-01-19T04:44:42;0.55;;;0.20;;
23280;SDS011;11809;56.390;-3.266;2023-01-19T04:47:09;0.90;;;0.22;;
23280;SDS011;11809;56.390;-3.266;2023-01-19T04:49:36;0.20;;;0.20;;
23280;SDS011;11809;56.390;-3.266;2023-01-19T04:52:03;0.55;;;0.30;;
23280;SDS011;11809;56.390;-3.266;2023-01-19T04:54:31;0.95;;;0.25;;
23280;SDS011;11809;56.390;-3.266;2023-01-19T04:56:58;0.17;;;0.10;;
23280;SDS011;11809;56.390;-3.266;2023-01-19T04:59:25;0.82;;;0.10;;
23280;SDS011;11809;56.390;-3.266;2023-01-19T05:01:52;0.28;;;0.17;;
23280;SDS011;11809;56.390;-3.266;2023-01-19T05:04:19;0.32;;;0.17;;
23280;SDS011;11809;56.390;-3.266;2023-01-19T05:06:47;0.20;;;0.10;;
23280;SDS011;11809;56.390;-3.266;2023-01-19T05:09:14;0.95;;;0.28;;
23280;SDS011;11809;56.390;-3.266;2023-01-19T05:11:41;1.33;;;0.28;;
23280;SDS011;11809;56.390;-3.266;2023-01-19T05:14:08;0.28;;;0.10;;
23280;SDS011;11809;56.390;-3.266;2023-01-19T05:16:35;0.10;;;0.10;;
23280;SDS011;11809;56.390;-3.266;2023-01-19T05:19:02;0.38;;;0.20;;
23280;SDS011;11809;56.390;-3.266;2023-01-19T05:21:29;0.20;;;0.20;;
23280;SDS011;11809;56.390;-3.266;2023-01-19T05:23:56;0.30;;;0.15;;
23280;SDS011;11809;56.390;-3.266;2023-01-19T05:26:23;0.20;;;0.10;;
23280;SDS011;11809;56.390;-3.266;2023-01-19T05:28:50;0.15;;;0.10;;
23280;SDS011;11809;56.390;-3.266;2023-01-19T05:31:16;0.30;;;0.10;;
23280;SDS011;11809;56.390;-3.266;2023-01-19T05:33:44;0.52;;;0.10;;
23280;SDS011;11809;56.390;-3.266;2023-01-19T05:36:11;0.52;;;0.10;;
23280;SDS011;11809;56.390;-3.266;2023-01-19T05:38:38;16.02;;;0.70;;
23280;SDS011;11809;56.390;-3.266;2023-01-19T05:41:05;5.22;;;0.40;;
23280;SDS011;11809;56.390;-3.266;2023-01-19T05:43:32;7.68;;;0.22;;
23280;SDS011;11809;56.390;-3.266;2023-01-19T05:45:59;3.60;;;0.32;;
23280;SDS011;11809;56.390;-3.266;2023-01-19T05:48:26;5.93;;;0.88;;
23280;SDS011;11809;56.390;-3.266;2023-01-19T05:50:55;6.20;;;0.47;;
23280;SDS011;11809;56.390;-3.266;2023-01-19T05:53:23;25.73;;;1.50;;
23280;SDS011;11809;56.390;-3.266;2023-01-19T05:55:51;24.40;;;1.30;;
23280;SDS011;11809;56.390;-3.266;2023-01-19T05:58:18;16.23;;;1.27;;
23280;SDS011;11809;56.390;-3.266;2023-01-19T06:00:44;14.15;;;0.57;;
23280;SDS011;11809;56.390;-3.266;2023-01-19T06:03:11;12.18;;;0.60;;
23280;SDS011;11809;56.390;-3.266;2023-01-19T06:05:38;7.30;;;0.50;;
23280;SDS011;11809;56.390;-3.266;2023-01-19T06:08:05;10.43;;;0.70;;
23280;SDS011;11809;56.390;-3.266;2023-01-19T06:10:32;4.88;;;0.50;;
23280;SDS011;11809;56.390;-3.266;2023-01-19T06:12:59;8.43;;;0.68;;
23280;SDS011;11809;56.390;-3.266;2023-01-19T06:15:26;9.23;;;0.82;;
23280;SDS011;11809;56.390;-3.266;2023-01-19T06:17:53;17.08;;;2.13;;
23280;SDS011;11809;56.390;-3.266;2023-01-19T06:20:20;9.82;;;0.90;;
23280;SDS011;11809;56.390;-3.266;2023-01-19T06:22:47;13.70;;;2.03;;
23280;SDS011;11809;56.390;-3.266;2023-01-19T06:25:14;11.70;;;2.20;;
23280;SDS011;11809;56.390;-3.266;2023-01-19T06:27:44;14.35;;;2.28;;
23280;SDS011;11809;56.390;-3.266;2023-01-19T06:30:11;14.68;;;1.88;;
23280;SDS011;11809;56.390;-3.266;2023-01-19T06:32:39;15.80;;;1.58;;
23280;SDS011;11809;56.390;-3.266;2023-01-19T06:35:06;10.95;;;1.40;;
23280;SDS011;11809;56.390;-3.266;2023-01-19T06:37:33;10.70;;;1.52;;
23280;SDS011;11809;56.390;-3.266;2023-01-19T06:40:01;11.27;;;1.30;;
23280;SDS011;11809;56.390;-3.266;2023-01-19T06:42:28;25.52;;;3.05;;
23280;SDS011;11809;56.390;-3.266;2023-01-19T06:44:55;12.38;;;2.00;;
23280;SDS011;11809;56.390;-3.266;2023-01-19T06:47:21;6.75;;;1.13;;
23280;SDS011;11809;56.390;-3.266;2023-01-19T06:49:49;12.95;;;1.60;;
23280;SDS011;11809;56.390;-3.266;2023-01-19T06:52:16;5.97;;;1.20;;
23280;SDS011;11809;56.390;-3.266;2023-01-19T06:54:43;5.28;;;1.15;;
23280;SDS011;11809;56.390;-3.266;2023-01-19T06:57:12;8.38;;;0.93;;
23280;SDS011;11809;56.390;-3.266;2023-01-19T06:59:40;7.68;;;1.10;;
23280;SDS011;11809;56.390;-3.266;2023-01-19T07:02:08;3.58;;;0.80;;
23280;SDS011;11809;56.390;-3.266;2023-01-19T07:04:53;3.67;;;0.90;;
23280;SDS011;11809;56.390;-3.266;2023-01-19T07:07:20;2.10;;;0.85;;
23280;SDS011;11809;56.390;-3.266;2023-01-19T07:09:47;1.85;;;0.55;;
23280;SDS011;11809;56.390;-3.266;2023-01-19T07:12:13;4.45;;;0.60;;
23280;SDS011;11809;56.390;-3.266;2023-01-19T07:14:40;3.63;;;0.75;;
23280;SDS011;11809;56.390;-3.266;2023-01-19T07:17:07;4.35;;;0.77;;
23280;SDS011;11809;56.390;-3.266;2023-01-19T07:19:34;0.65;;;0.40;;
23280;SDS011;11809;56.390;-3.266;2023-01-19T07:22:02;2.75;;;0.50;;
23280;SDS011;11809;56.390;-3.266;2023-01-19T07:24:29;2.78;;;0.57;;
23280;SDS011;11809;56.390;-3.266;2023-01-19T07:26:56;12.75;;;0.80;;
23280;SDS011;11809;56.390;-3.266;2023-01-19T07:29:23;8.93;;;1.10;;
23280;SDS011;11809;56.390;-3.266;2023-01-19T07:31:50;30.67;;;2.30;;
23280;SDS011;11809;56.390;-3.266;2023-01-19T07:34:20;23.52;;;1.63;;
23280;SDS011;11809;56.390;-3.266;2023-01-19T07:36:47;11.77;;;1.00;;
23280;SDS011;11809;56.390;-3.266;2023-01-19T07:39:14;13.52;;;1.20;;
23280;SDS011;11809;56.390;-3.266;2023-01-19T07:41:41;18.33;;;0.80;;
23280;SDS011;11809;56.390;-3.266;2023-01-19T07:44:08;6.68;;;0.30;;
23280;SDS011;11809;56.390;-3.266;2023-01-19T07:46:35;3.33;;;0.28;;
23280;SDS011;11809;56.390;-3.266;2023-01-19T07:49:03;9.98;;;0.60;;
23280;SDS011;11809;56.390;-3.266;2023-01-19T07:51:30;2.40;;;0.20;;
23280;SDS011;11809;56.390;-3.266;2023-01-19T07:53:57;2.05;;;0.20;;
23280;SDS011;11809;56.390;-3.266;2023-01-19T07:56:24;1.15;;;0.40;;
23280;SDS011;11809;56.390;-3.266;2023-01-19T07:58:53;3.40;;;0.30;;
23280;SDS011;11809;56.390;-3.266;2023-01-19T08:01:21;3.22;;;0.22;;
23280;SDS011;11809;56.390;-3.266;2023-01-19T08:03:48;2.33;;;0.20;;
23280;SDS011;11809;56.390;-3.266;2023-01-19T08:06:20;1.00;;;0.30;;
23280;SDS011;11809;56.390;-3.266;2023-01-19T08:08:48;3.33;;;0.10;;
23280;SDS011;11809;56.390;-3.266;2023-01-19T08:11:15;0.52;;;0.20;;
23280;SDS011;11809;56.390;-3.266;2023-01-19T08:13:42;2.20;;;0.30;;
23280;SDS011;11809;56.390;-3.266;2023-01-19T08:16:09;1.15;;;0.20;;
23280;SDS011;11809;56.390;-3.266;2023-01-19T08:18:36;1.00;;;0.15;;
23280;SDS011;11809;56.390;-3.266;2023-01-19T08:21:03;0.82;;;0.17;;
23280;SDS011;11809;56.390;-3.266;2023-01-19T08:23:31;1.85;;;0.30;;
23280;SDS011;11809;56.390;-3.266;2023-01-19T08:25:58;2.08;;;0.40;;
23280;SDS011;11809;56.390;-3.266;2023-01-19T08:28:25;0.10;;;0.10;;
23280;SDS011;11809;56.390;-3.266;2023-01-19T08:30:52;2.22;;;0.10;;
23280;SDS011;11809;56.390;-3.266;2023-01-19T08:33:20;0.22;;;0.10;;
23280;SDS011;11809;56.390;-3.266;2023-01-19T08:35:51;1.17;;;0.10;;
23280;SDS011;11809;56.390;-3.266;2023-01-19T08:38:19;0.30;;;0.10;;
23280;SDS011;11809;56.390;-3.266;2023-01-19T08:40:46;2.20;;;0.15;;
23280;SDS011;11809;56.390;-3.266;2023-01-19T08:43:14;0.17;;;0.10;;
23280;SDS011;11809;56.390;-3.266;2023-01-19T08:45:44;0.63;;;0.10;;
23280;SDS011;11809;56.390;-3.266;2023-01-19T08:48:16;2.08;;;0.20;;
23280;SDS011;11809;56.390;-3.266;2023-01-19T08:50:45;0.68;;;0.13;;
23280;SDS011;11809;56.390;-3.266;2023-01-19T08:53:13;0.32;;;0.10;;
23280;SDS011;11809;56.390;-3.266;2023-01-19T08:55:40;0.88;;;0.10;;
23280;SDS011;11809;56.390;-3.266;2023-01-19T08:58:08;0.30;;;0.10;;
23280;SDS011;11809;56.390;-3.266;2023-01-19T09:00:36;0.55;;;0.15;;
23280;SDS011;11809;56.390;-3.266;2023-01-19T09:03:04;0.20;;;0.13;;
23280;SDS011;11809;56.390;-3.266;2023-01-19T09:05:34;0.10;;;0.10;;
23280;SDS011;11809;56.390;-3.266;2023-01-19T09:08:05;0.32;;;0.20;;
23280;SDS011;11809;56.390;-3.266;2023-01-19T09:10:35;0.17;;;0.17;;
23280;SDS011;11809;56.390;-3.266;2023-01-19T09:13:04;1.92;;;0.10;;
23280;SDS011;11809;56.390;-3.266;2023-01-19T09:15:33;0.47;;;0.10;;
23280;SDS011;11809;56.390;-3.266;2023-01-19T09:18:04;0.20;;;0.10;;
23280;SDS011;11809;56.390;-3.266;2023-01-19T09:20:33;0.43;;;0.10;;
23280;SDS011;11809;56.390;-3.266;2023-01-19T09:23:01;0.10;;;0.10;;
23280;SDS011;11809;56.390;-3.266;2023-01-19T09:25:29;0.17;;;0.10;;
23280;SDS011;11809;56.390;-3.266;2023-01-19T09:28:00;0.22;;;0.10;;
23280;SDS011;11809;56.390;-3.266;2023-01-19T09:30:28;0.17;;;0.10;;
23280;SDS011;11809;56.390;-3.266;2023-01-19T09:32:59;0.88;;;0.10;;
23280;SDS011;11809;56.390;-3.266;2023-01-19T09:35:27;0.30;;;0.30;;
23280;SDS011;11809;56.390;-3.266;2023-01-19T09:37:54;0.20;;;0.10;;
23280;SDS011;11809;56.390;-3.266;2023-01-19T09:40:22;0.43;;;0.00;;
23280;SDS011;11809;56.390;-3.266;2023-01-19T09:43:02;0.10;;;0.10;;
23280;SDS011;11809;56.390;-3.266;2023-01-19T09:51:18;0.20;;;0.10;;
23280;SDS011;11809;56.390;-3.266;2023-01-19T09:56:26;0.43;;;0.10;;
23280;SDS011;11809;56.390;-3.266;2023-01-19T09:58:54;0.30;;;0.10;;
23280;SDS011;11809;56.390;-3.266;2023-01-19T10:01:26;0.10;;;0.10;;
23280;SDS011;11809;56.390;-3.266;2023-01-19T10:07:10;0.35;;;0.20;;
23280;SDS011;11809;56.390;-3.266;2023-01-19T10:09:45;0.25;;;0.20;;
23280;SDS011;11809;56.390;-3.266;2023-01-19T10:18:16;0.20;;;0.20;;
23280;SDS011;11809;56.390;-3.266;2023-01-19T10:20:49;0.40;;;0.30;;
23280;SDS011;11809;56.390;-3.266;2023-01-19T10:23:34;0.60;;;0.40;;
23280;SDS011;11809;56.390;-3.266;2023-01-19T10:26:13;0.20;;;0.20;;
23280;SDS011;11809;56.390;-3.266;2023-01-19T10:28:44;1.00;;;0.40;;
23280;SDS011;11809;56.390;-3.266;2023-01-19T10:31:14;0.37;;;0.20;;
23280;SDS011;11809;56.390;-3.266;2023-01-19T10:36:16;0.20;;;0.20;;
23280;SDS011;11809;56.390;-3.266;2023-01-19T10:38:49;1.77;;;0.28;;
23280;SDS011;11809;56.390;-3.266;2023-01-19T10:41:22;0.60;;;0.30;;
23280;SDS011;11809;56.390;-3.266;2023-01-19T10:44:00;0.25;;;0.22;;
23280;SDS011;11809;56.390;-3.266;2023-01-19T10:46:33;1.50;;;0.40;;
23280;SDS011;11809;56.390;-3.266;2023-01-19T10:49:28;0.57;;;0.40;;
23280;SDS011;11809;56.390;-3.266;2023-01-19T10:52:01;0.30;;;0.20;;
23280;SDS011;11809;56.390;-3.266;2023-01-19T10:54:30;0.20;;;0.20;;
23280;SDS011;11809;56.390;-3.266;2023-01-19T10:57:04;0.40;;;0.20;;
23280;SDS011;11809;56.390;-3.266;2023-01-19T11:02:18;0.90;;;0.20;;
23280;SDS011;11809;56.390;-3.266;2023-01-19T11:04:59;0.30;;;0.30;;
23280;SDS011;11809;56.390;-3.266;2023-01-19T11:07:28;1.33;;;0.30;;
23280;SDS011;11809;56.390;-3.266;2023-01-19T11:10:32;0.65;;;0.30;;
23280;SDS011;11809;56.390;-3.266;2023-01-19T11:12:57;1.75;;;0.25;;
23280;SDS011;11809;56.390;-3.266;2023-01-19T11:18:33;0.20;;;0.20;;
23280;SDS011;11809;56.390;-3.266;2023-01-19T11:23:44;0.38;;;0.20;;
23280;SDS011;11809;56.390;-3.266;2023-01-19T11:26:32;0.85;;;0.30;;
23280;SDS011;11809;56.390;-3.266;2023-01-19T11:29:14;7.18;;;0.50;;
23280;SDS011;11809;56.390;-3.266;2023-01-19T11:31:47;0.90;;;0.73;;
23280;SDS011;11809;56.390;-3.266;2023-01-19T11:37:04;0.77;;;0.32;;
23280;SDS011;11809;56.390;-3.266;2023-01-19T11:39:51;1.73;;;0.40;;
23280;SDS011;11809;56.390;-3.266;2023-01-19T11:42:24;0.40;;;0.40;;
23280;SDS011;11809;56.390;-3.266;2023-01-19T11:47:25;5.22;;;0.60;;
23280;SDS011;11809;56.390;-3.266;2023-01-19T11:50:12;6.13;;;0.63;;
23280;SDS011;11809;56.390;-3.266;2023-01-19T11:58:04;2.60;;;0.43;;
23280;SDS011;11809;56.390;-3.266;2023-01-19T12:06:16;1.58;;;0.25;;
23280;SDS011;11809;56.390;-3.266;2023-01-19T12:08:47;2.15;;;0.50;;
23280;SDS011;11809;56.390;-3.266;2023-01-19T12:11:24;1.80;;;0.50;;
23280;SDS011;11809;56.390;-3.266;2023-01-19T12:13:57;3.17;;;0.40;;
23280;SDS011;11809;56.390;-3.266;2023-01-19T12:16:27;1.70;;;0.50;;
23280;SDS011;11809;56.390;-3.266;2023-01-19T12:18:58;1.15;;;0.43;;
23280;SDS011;11809;56.390;-3.266;2023-01-19T12:21:28;0.70;;;0.55;;
23280;SDS011;11809;56.390;-3.266;2023-01-19T12:26:57;1.30;;;0.50;;
23280;SDS011;11809;56.390;-3.266;2023-01-19T12:29:27;1.13;;;0.50;;
23280;SDS011;11809;56.390;-3.266;2023-01-19T12:34:42;1.55;;;0.55;;
23280;SDS011;11809;56.390;-3.266;2023-01-19T12:40:17;2.40;;;0.60;;
23280;SDS011;11809;56.390;-3.266;2023-01-19T12:43:00;2.58;;;0.50;;
23280;SDS011;11809;56.390;-3.266;2023-01-19T12:45:31;0.80;;;0.30;;
23280;SDS011;11809;56.390;-3.266;2023-01-19T12:48:00;0.88;;;0.47;;
23280;SDS011;11809;56.390;-3.266;2023-01-19T12:50:34;0.73;;;0.40;;
23280;SDS011;11809;56.390;-3.266;2023-01-19T12:53:05;1.17;;;0.52;;
23280;SDS011;11809;56.390;-3.266;2023-01-19T12:55:44;1.55;;;0.50;;
23280;SDS011;11809;56.390;-3.266;2023-01-19T12:58:25;2.37;;;0.50;;
23280;SDS011;11809;56.390;-3.266;2023-01-19T13:01:15;1.13;;;0.30;;
23280;SDS011;11809;56.390;-3.266;2023-01-19T13:14:42;12.38;;;0.85;;
23280;SDS011;11809;56.390;-3.266;2023-01-19T13:17:31;2.70;;;0.43;;
23280;SDS011;11809;56.390;-3.266;2023-01-19T13:20:04;1.52;;;0.32;;
23280;SDS011;11809;56.390;-3.266;2023-01-19T13:25:46;3.03;;;0.30;;
23280;SDS011;11809;56.390;-3.266;2023-01-19T13:28:17;0.32;;;0.28;;
23280;SDS011;11809;56.390;-3.266;2023-01-19T13:30:55;4.47;;;0.40;;
23280;SDS011;11809;56.390;-3.266;2023-01-19T13:33:26;1.92;;;0.35;;
23280;SDS011;11809;56.390;-3.266;2023-01-19T13:35:58;0.80;;;0.30;;
23280;SDS011;11809;56.390;-3.266;2023-01-19T13:38:26;4.07;;;0.88;;
23280;SDS011;11809;56.390;-3.266;2023-01-19T13:40:54;1.65;;;0.30;;
23280;SDS011;11809;56.390;-3.266;2023-01-19T13:43:26;2.40;;;0.40;;
23280;SDS011;11809;56.390;-3.266;2023-01-19T13:45:58;2.65;;;0.50;;
23280;SDS011;11809;56.390;-3.266;2023-01-19T13:48:26;1.67;;;0.68;;
23280;SDS011;11809;56.390;-3.266;2023-01-19T13:50:57;4.00;;;0.50;;
23280;SDS011;11809;56.390;-3.266;2023-01-19T13:53:51;2.00;;;0.60;;
23280;SDS011;11809;56.390;-3.266;2023-01-19T13:56:20;1.80;;;0.57;;
23280;SDS011;11809;56.390;-3.266;2023-01-19T14:01:35;3.25;;;0.50;;
23280;SDS011;11809;56.390;-3.266;2023-01-19T14:04:04;21.52;;;1.77;;
23280;SDS011;11809;56.390;-3.266;2023-01-19T14:06:39;6.78;;;0.60;;
23280;SDS011;11809;56.390;-3.266;2023-01-19T14:09:17;1.65;;;0.40;;
23280;SDS011;11809;56.390;-3.266;2023-01-19T14:11:46;4.28;;;0.50;;
23280;SDS011;11809;56.390;-3.266;2023-01-19T14:14:30;4.97;;;0.50;;
23280;SDS011;11809;56.390;-3.266;2023-01-19T14:16:58;1.20;;;0.40;;
23280;SDS011;11809;56.390;-3.266;2023-01-19T14:19:25;2.10;;;0.45;;
23280;SDS011;11809;56.390;-3.266;2023-01-19T14:21:57;0.95;;;0.35;;
23280;SDS011;11809;56.390;-3.266;2023-01-19T14:24:26;7.03;;;0.73;;
23280;SDS011;11809;56.390;-3.266;2023-01-19T14:29:46;6.47;;;0.93;;
23280;SDS011;11809;56.390;-3.266;2023-01-19T14:32:20;11.88;;;1.70;;
23280;SDS011;11809;56.390;-3.266;2023-01-19T14:37:45;44.22;;;3.75;;
23280;SDS011;11809;56.390;-3.266;2023-01-19T14:40:16;23.52;;;2.45;;
23280;SDS011;11809;56.390;-3.266;2023-01-19T14:42:59;34.45;;;3.95;;
23280;SDS011;11809;56.390;-3.266;2023-01-19T14:45:38;15.95;;;2.20;;
23280;SDS011;11809;56.390;-3.266;2023-01-19T14:48:18;27.10;;;2.80;;
23280;SDS011;11809;56.390;-3.266;2023-01-19T14:50:47;35.97;;;3.10;;
23280;SDS011;11809;56.390;-3.266;2023-01-19T14:53:28;26.33;;;3.17;;
23280;SDS011;11809;56.390;-3.266;2023-01-19T14:56:03;31.70;;;4.43;;
23280;SDS011;11809;56.390;-3.266;2023-01-19T14:58:33;24.42;;;4.05;;
23280;SDS011;11809;56.390;-3.266;2023-01-19T15:01:02;34.30;;;9.55;;
23280;SDS011;11809;56.390;-3.266;2023-01-19T15:03:30;53.00;;;14.88;;
23280;SDS011;11809;56.390;-3.266;2023-01-19T15:06:14;55.15;;;25.70;;
23280;SDS011;11809;56.390;-3.266;2023-01-19T15:08:44;43.42;;;21.48;;
23280;SDS011;11809;56.390;-3.266;2023-01-19T15:13:52;24.55;;;14.20;;
23280;SDS011;11809;56.390;-3.266;2023-01-19T15:16:21;32.00;;;12.40;;
23280;SDS011;11809;56.390;-3.266;2023-01-19T15:18:49;20.05;;;11.77;;
23280;SDS011;11809;56.390;-3.266;2023-01-19T15:21:17;12.27;;;8.02;;
23280;SDS011;11809;56.390;-3.266;2023-01-19T15:23:46;10.75;;;6.05;;
23280;SDS011;11809;56.390;-3.266;2023-01-19T15:26:14;11.50;;;6.53;;
23280;SDS011;11809;56.390;-3.266;2023-01-19T15:28:43;10.32;;;5.45;;
23280;SDS011;11809;56.390;-3.266;2023-01-19T15:31:14;9.82;;;5.47;;
23280;SDS011;11809;56.390;-3.266;2023-01-19T15:33:43;25.80;;;4.82;;
23280;SDS011;11809;56.390;-3.266;2023-01-19T15:36:12;11.40;;;3.70;;
23280;SDS011;11809;56.390;-3.266;2023-01-19T15:38:43;20.95;;;3.65;;
23280;SDS011;11809;56.390;-3.266;2023-01-19T15:41:17;10.25;;;3.30;;
23280;SDS011;11809;56.390;-3.266;2023-01-19T15:43:49;9.88;;;2.78;;
23280;SDS011;11809;56.390;-3.266;2023-01-19T15:46:17;10.23;;;2.92;;
23280;SDS011;11809;56.390;-3.266;2023-01-19T15:48:48;18.05;;;3.38;;
23280;SDS011;11809;56.390;-3.266;2023-01-19T15:51:17;39.72;;;4.32;;
23280;SDS011;11809;56.390;-3.266;2023-01-19T15:53:46;54.30;;;27.75;;
23280;SDS011;11809;56.390;-3.266;2023-01-19T15:56:15;54.95;;;29.63;;
23280;SDS011;11809;56.390;-3.266;2023-01-19T15:58:45;64.80;;;27.95;;
23280;SDS011;11809;56.390;-3.266;2023-01-19T16:01:13;70.13;;;31.73;;
23280;SDS011;11809;56.390;-3.266;2023-01-19T16:03:45;110.55;;;27.88;;
23280;SDS011;11809;56.390;-3.266;2023-01-19T16:06:13;60.63;;;22.77;;
23280;SDS011;11809;56.390;-3.266;2023-01-19T16:08:42;78.85;;;22.10;;
23280;SDS011;11809;56.390;-3.266;2023-01-19T16:11:10;59.58;;;20.45;;
23280;SDS011;11809;56.390;-3.266;2023-01-19T16:13:44;44.92;;;15.25;;
23280;SDS011;11809;56.390;-3.266;2023-01-19T16:16:16;28.52;;;12.07;;
23280;SDS011;11809;56.390;-3.266;2023-01-19T16:18:44;27.65;;;10.90;;
23280;SDS011;11809;56.390;-3.266;2023-01-19T16:21:12;22.70;;;9.32;;
23280;SDS011;11809;56.390;-3.266;2023-01-19T16:23:40;31.30;;;11.32;;
23280;SDS011;11809;56.390;-3.266;2023-01-19T16:26:22;72.30;;;11.15;;